»·PEaware :: DAL2718 KBIL-KDEN

DAL2718 :: KBIL-KDEN

FLIGHT INFORMATION

Flight Status: Arrived
Operator:
Delta Air Lines
More flights by this operator :: More flights under this callsign
Pilot: Sanjiv S. (4490)
Aircraft: BOEING 737-800
(B738)
More flights by this aircraft type
Origin: KBIL Billings Logan Intl
United States
Destination: KDEN Denver Intl
United States
More flights between these airports :: More routes between these airports
Route: +BIL5 GAITZ GRYNS RICCO OPPEE MOLTN3
File this flight plan on PilotEdge
Remarks:
Altitude:
(Current/Filed)
33,000ft
Speed:
(Current/Filed)
430kts
Departed: 28-Mar-18 07:24 PM
Arrived: 28-Mar-18 09:00 PM
Distance/Time
Traveled:
396nm/1:36
Distance/Time
To Go:
Arrived

Flight Plot

Page will automatically refresh every two minutes.

Flight plan parsing failed; only flown route is shown


Map Options




Map Legend


Flown Route
Filed Route
Departure Airport
Arrival Airport
Navaid (VOR, NDB)
Fix

Horizontal Profiles

Position Reports

Time Latitude Longitude Heading Altitude Ground
Speed
28-Mar-18 18:42 45.804303 -108.538134 179 3659ft 0kts
28-Mar-18 18:43 45.804303 -108.538134 179 3659ft 0kts
28-Mar-18 18:44 45.804303 -108.538134 179 3659ft 0kts
28-Mar-18 18:45 45.804303 -108.538134 179 3659ft 0kts
28-Mar-18 18:46 45.804303 -108.538134 179 3659ft 0kts
28-Mar-18 18:47 45.804303 -108.538134 179 3659ft 0kts
28-Mar-18 18:48 45.804303 -108.538134 179 3659ft 0kts
28-Mar-18 18:49 45.804303 -108.538134 179 3659ft 0kts
28-Mar-18 18:50 45.804303 -108.538134 179 3659ft 0kts
28-Mar-18 18:51 45.804303 -108.538134 179 3659ft 0kts
28-Mar-18 18:52 45.804303 -108.538134 179 3659ft 0kts
28-Mar-18 18:53 45.804303 -108.538134 179 3659ft 0kts
28-Mar-18 18:54 45.804303 -108.538134 179 3659ft 0kts
28-Mar-18 18:55 45.804303 -108.538134 179 3659ft 0kts
28-Mar-18 18:56 45.804303 -108.538134 179 3659ft 0kts
28-Mar-18 18:57 45.804303 -108.538134 179 3659ft 0kts
28-Mar-18 18:58 45.804303 -108.538134 179 3659ft 0kts
28-Mar-18 18:59 45.804303 -108.538134 179 3659ft 0kts
28-Mar-18 19:00 45.804303 -108.538134 179 3659ft 0kts
28-Mar-18 19:01 45.804303 -108.538134 179 3659ft 0kts
28-Mar-18 19:02 45.804303 -108.538134 179 3659ft 0kts
28-Mar-18 19:03 45.804303 -108.538134 179 3659ft 0kts
28-Mar-18 19:04 45.804303 -108.538134 179 3659ft 0kts
28-Mar-18 19:05 45.804303 -108.538134 179 3659ft 0kts
28-Mar-18 19:06 45.804730 -108.537959 214 3659ft 2kts
28-Mar-18 19:07 45.804942 -108.537650 234 3659ft 0kts
28-Mar-18 19:08 45.804942 -108.537650 234 3659ft 0kts
28-Mar-18 19:09 45.804942 -108.537650 234 3659ft 0kts
28-Mar-18 19:10 45.804942 -108.537650 234 3659ft 0kts
28-Mar-18 19:11 45.804828 -108.538231 295 3659ft 2kts
28-Mar-18 19:12 45.805197 -108.538776 309 3659ft 4kts
28-Mar-18 19:13 45.805840 -108.541282 285 3659ft 9kts
28-Mar-18 19:14 45.805884 -108.545671 270 3659ft 12kts
28-Mar-18 19:15 45.805886 -108.546551 266 3659ft 0kts
28-Mar-18 19:16 45.805885 -108.546599 266 3659ft 1kts
28-Mar-18 19:17 45.808928 -108.548228 295 3659ft 12kts
28-Mar-18 19:18 45.810467 -108.553211 289 3659ft 15kts
28-Mar-18 19:19 45.811729 -108.555180 18 3659ft 0kts
28-Mar-18 19:20 45.811729 -108.555180 18 3659ft 0kts
28-Mar-18 19:21 45.811729 -108.555180 18 3659ft 0kts
28-Mar-18 19:22 45.812511 -108.554477 75 3659ft 6kts
28-Mar-18 19:23 45.810230 -108.545833 111 3659ft 109kts
28-Mar-18 19:24 45.790525 -108.484134 109 5725ft 201kts
28-Mar-18 19:25 45.765451 -108.405252 109 7717ft 279kts
28-Mar-18 19:26 45.737169 -108.311694 110 10413ft 314kts
28-Mar-18 19:27 45.700103 -108.211249 139 12582ft 362kts
28-Mar-18 19:28 45.616469 -108.170518 174 15762ft 366kts
28-Mar-18 19:29 45.521041 -108.148269 174 18494ft 386kts
28-Mar-18 19:30 45.419777 -108.124710 174 21021ft 405kts
28-Mar-18 19:31 45.317600 -108.101022 174 23243ft 422kts
28-Mar-18 19:32 45.215790 -108.063341 150 25193ft 446kts
28-Mar-18 19:33 45.119343 -107.972400 146 27077ft 463kts
28-Mar-18 19:34 45.016122 -107.876646 152 28827ft 480kts
28-Mar-18 19:35 44.918867 -107.807504 153 30415ft 488kts
28-Mar-18 19:36 44.813076 -107.733709 154 32154ft 490kts
28-Mar-18 19:37 44.701004 -107.656190 154 33056ft 503kts
28-Mar-18 19:38 44.582109 -107.574239 153 33060ft 528kts
28-Mar-18 19:39 44.465236 -107.493729 153 33042ft 531kts
28-Mar-18 19:40 44.355612 -107.418213 153 33048ft 531kts
28-Mar-18 19:41 44.248760 -107.344609 154 33060ft 532kts
28-Mar-18 19:42 44.132828 -107.264493 154 33063ft 531kts
28-Mar-18 19:43 44.012934 -107.181694 154 33050ft 531kts
28-Mar-18 19:44 43.896029 -107.101039 154 33065ft 533kts
28-Mar-18 19:45 43.782682 -107.026429 165 33042ft 528kts
28-Mar-18 19:46 43.656646 -106.986732 169 33061ft 522kts
28-Mar-18 19:47 43.528071 -106.943909 169 33049ft 518kts
28-Mar-18 19:48 43.395944 -106.899348 168 33049ft 511kts
28-Mar-18 19:49 43.262223 -106.854158 168 33051ft 508kts
28-Mar-18 19:50 43.130618 -106.809654 168 33048ft 503kts
28-Mar-18 19:51 43.001082 -106.765853 168 33051ft 500kts
28-Mar-18 19:52 42.878223 -106.724325 167 33044ft 499kts
28-Mar-18 19:53 42.751905 -106.681599 168 33039ft 497kts
28-Mar-18 19:54 42.628613 -106.639897 167 33046ft 498kts
28-Mar-18 19:55 42.503396 -106.597513 167 33057ft 498kts
28-Mar-18 19:56 42.375837 -106.554362 167 33047ft 499kts
28-Mar-18 19:57 42.254862 -106.513417 167 33052ft 498kts
28-Mar-18 19:58 42.135999 -106.473250 167 33060ft 498kts
28-Mar-18 19:59 42.022874 -106.434970 167 33084ft 498kts
28-Mar-18 20:00 41.908575 -106.396294 167 33079ft 497kts
28-Mar-18 20:01 41.820790 -106.366602 167 33069ft 498kts
28-Mar-18 20:02 41.716391 -106.331228 167 33069ft 498kts
28-Mar-18 20:03 41.603026 -106.292805 168 33068ft 498kts
28-Mar-18 20:04 41.486842 -106.253430 167 33061ft 497kts
28-Mar-18 20:05 41.375323 -106.208906 163 33059ft 499kts
28-Mar-18 20:06 41.260061 -106.159343 163 33050ft 499kts
28-Mar-18 20:07 41.146934 -106.110880 163 32674ft 497kts
28-Mar-18 20:08 41.035695 -106.051548 158 31858ft 495kts
28-Mar-18 20:09 40.931154 -105.991654 158 31041ft 489kts
28-Mar-18 20:10 40.867541 -105.928389 127 30440ft 484kts
28-Mar-18 20:11 40.804207 -105.807004 123 29604ft 475kts
28-Mar-18 20:12 40.740150 -105.688755 124 28753ft 469kts
28-Mar-18 20:13 40.674134 -105.568623 124 27067ft 455kts
28-Mar-18 20:14 40.609566 -105.451949 125 24927ft 438kts
28-Mar-18 20:15 40.548830 -105.341221 125 23115ft 424kts
28-Mar-18 20:16 40.494145 -105.243913 136 22153ft 387kts
28-Mar-18 20:17 40.420889 -105.179044 150 20463ft 368kts
28-Mar-18 20:18 40.351343 -105.122936 150 18879ft 357kts
28-Mar-18 20:19 40.285496 -105.070484 149 17445ft 347kts
28-Mar-18 20:20 40.215858 -105.014915 147 16356ft 337kts
28-Mar-18 20:21 40.145324 -104.958506 146 15446ft 326kts
28-Mar-18 20:22 40.073859 -104.901463 146 14505ft 314kts
28-Mar-18 20:23 40.006172 -104.847599 146 13597ft 305kts
28-Mar-18 20:24 39.937618 -104.803297 173 12693ft 305kts
28-Mar-18 20:25 39.874702 -104.804401 179 11924ft 286kts
28-Mar-18 20:26 39.806988 -104.806871 179 11118ft 252kts
28-Mar-18 20:27 39.742384 -104.808901 179 9657ft 248kts
28-Mar-18 20:28 39.679394 -104.810737 181 8957ft 223kts
28-Mar-18 20:29 39.623147 -104.801628 136 8989ft 209kts
28-Mar-18 20:30 39.613398 -104.734020 87 8987ft 204kts
28-Mar-18 20:31 39.627995 -104.670445 28 8983ft 197kts
28-Mar-18 20:32 39.678349 -104.662876 1 8009ft 194kts
28-Mar-18 20:33 39.729359 -104.661883 0 7275ft 187kts
28-Mar-18 20:34 39.777459 -104.661211 359 6357ft 171kts
28-Mar-18 20:35 39.821855 -104.660728 0 5374ft 146kts
28-Mar-18 20:36 39.857907 -104.653385 1 6506ft 140kts
28-Mar-18 20:37 39.896744 -104.651933 358 8594ft 156kts
28-Mar-18 20:38 39.953963 -104.652935 358 9032ft 299kts
28-Mar-18 20:39 40.034552 -104.654142 5 8977ft 284kts
28-Mar-18 20:40 40.079257 -104.592353 87 8998ft 265kts
28-Mar-18 20:41 40.037845 -104.527932 171 9007ft 266kts
28-Mar-18 20:42 39.969204 -104.522267 177 8998ft 264kts
28-Mar-18 20:43 39.902635 -104.517966 177 8996ft 243kts
28-Mar-18 20:44 39.835096 -104.513610 177 9004ft 262kts
28-Mar-18 20:45 39.765499 -104.509215 177 9000ft 264kts
28-Mar-18 20:46 39.696208 -104.505003 177 9001ft 263kts
28-Mar-18 20:47 39.629067 -104.500996 177 8975ft 225kts
28-Mar-18 20:48 39.572227 -104.497558 177 8984ft 209kts
28-Mar-18 20:49 39.516443 -104.498454 205 8987ft 207kts
28-Mar-18 20:50 39.504086 -104.561828 286 8998ft 202kts
28-Mar-18 20:51 39.523673 -104.624957 320 8993ft 200kts
28-Mar-18 20:52 39.567599 -104.660436 348 8972ft 199kts
28-Mar-18 20:53 39.620403 -104.662851 359 8988ft 199kts
28-Mar-18 20:54 39.671860 -104.662578 0 8382ft 181kts
28-Mar-18 20:55 39.717341 -104.661933 359 7553ft 164kts
28-Mar-18 20:56 39.761512 -104.661374 359 6669ft 161kts
28-Mar-18 20:57 39.802518 -104.660917 359 5867ft 141kts
28-Mar-18 20:58 39.839484 -104.660459 0 5327ft 90kts
28-Mar-18 20:59 39.849241 -104.661727 329 5327ft 0kts
28-Mar-18 21:00 39.849241 -104.661727 329 5327ft 0kts
28-Mar-18 21:01 39.850225 -104.662335 347 5327ft 14kts
28-Mar-18 21:02 39.852202 -104.665695 287 5327ft 14kts
28-Mar-18 21:03 39.852354 -104.671176 269 5327ft 16kts
28-Mar-18 21:04 39.852857 -104.677316 285 5327ft 17kts
28-Mar-18 21:05 39.854774 -104.677257 138 5327ft 2kts
28-Mar-18 21:06 39.854439 -104.677141 179 5327ft 0kts
28-Mar-18 21:07 39.854439 -104.677141 179 5327ft 0kts

Navigation Log

Ident Type
Flight plan parsing failed, navigation log unavailable